createdAt,value
2019-01-10T00:03:52.691Z,-1.14
2019-01-10T00:06:57.567Z,-1.13
2019-01-10T00:10:21.543Z,-1.14
2019-01-10T00:13:45.583Z,-1.12
2019-01-10T00:17:09.827Z,-1.16
2019-01-10T00:20:34.203Z,-1.11
2019-01-10T00:23:58.425Z,-1.17
2019-01-10T00:27:22.610Z,-1.14
2019-01-10T00:30:46.599Z,-1.12
2019-01-10T00:34:10.577Z,-1.11
2019-01-10T00:37:27.655Z,-1.13
2019-01-10T00:40:51.628Z,-1.14
2019-01-10T00:44:15.848Z,-1.17
2019-01-10T00:47:39.831Z,-1.11
2019-01-10T00:51:03.876Z,-1.12
2019-01-10T00:54:27.891Z,-1.08
2019-01-10T00:57:51.930Z,-1.03
2019-01-10T01:01:15.939Z,-1.10
2019-01-10T01:04:39.986Z,-1.11
2019-01-10T01:11:53.622Z,-1.09
2019-01-10T01:15:38.400Z,-1.04
2019-01-10T01:19:02.425Z,-1.07
2019-01-10T01:22:26.395Z,-1.13
2019-01-10T01:25:50.365Z,-1.10
2019-01-10T01:29:14.621Z,-1.09
2019-01-10T01:32:38.916Z,-1.01
2019-01-10T01:35:56.513Z,-0.99
2019-01-10T01:39:20.776Z,-0.98
2019-01-10T01:42:45.226Z,-1.07
2019-01-10T01:46:09.323Z,-1.07
2019-01-10T01:49:33.340Z,-1.07
2019-01-10T01:52:57.579Z,-0.97
2019-01-10T01:56:21.556Z,-0.97
2019-01-10T01:59:45.519Z,-1.06
2019-01-10T02:03:09.567Z,-1.10
2019-01-10T02:06:33.545Z,-1.11
2019-01-10T02:09:38.955Z,-1.08
2019-01-10T02:13:02.927Z,-1.07
2019-01-10T02:16:26.906Z,-1.03
2019-01-10T02:19:51.139Z,-0.98
2019-01-10T02:23:15.113Z,-1.04
2019-01-10T02:26:39.324Z,-1.08
2019-01-10T02:33:53.809Z,-1.07
2019-01-10T02:37:10.864Z,-1.07
2019-01-10T02:40:34.845Z,-1.07
2019-01-10T02:43:58.822Z,-1.06
2019-01-10T02:47:22.828Z,-1.00
2019-01-10T02:50:46.813Z,-1.04
2019-01-10T02:54:10.856Z,-1.05
2019-01-10T02:57:34.825Z,-1.08
2019-01-10T03:00:58.803Z,-1.09
2019-01-10T03:04:22.846Z,-1.13
2019-01-10T03:07:46.888Z,-1.13
2019-01-10T03:11:10.935Z,-1.12
2019-01-10T03:14:35.216Z,-1.20
2019-01-10T03:17:59.189Z,-1.15
2019-01-10T03:21:23.167Z,-1.05
2019-01-10T03:25:06.178Z,-1.08
2019-01-10T03:28:30.417Z,-1.03
2019-01-10T03:31:54.749Z,-1.02
2019-01-10T03:35:11.976Z,-1.00
2019-01-10T03:38:35.950Z,-1.00
2019-01-10T03:42:00.200Z,-0.97
2019-01-10T03:45:24.480Z,-0.99
2019-01-10T03:48:48.460Z,-1.01
2019-01-10T03:52:12.748Z,-1.01
2019-01-10T03:55:36.751Z,-1.01
2019-01-10T03:59:01.018Z,-1.05
2019-01-10T04:02:25.305Z,-1.01
2019-01-10T04:05:49.601Z,-1.07
2019-01-10T04:09:13.846Z,-1.08
2019-01-10T04:12:37.824Z,-1.04
2019-01-10T04:16:01.842Z,-1.02
2019-01-10T04:19:25.859Z,-1.09
2019-01-10T04:22:50.172Z,-1.08
2019-01-10T04:26:14.153Z,-1.18
2019-01-10T04:29:38.400Z,-1.02
2019-01-10T04:33:02.384Z,-0.99
2019-01-10T04:36:19.903Z,-1.03
2019-01-10T04:39:43.904Z,-1.07
2019-01-10T04:43:08.190Z,-1.08
2019-01-10T04:46:32.176Z,-1.02
2019-01-10T04:49:56.458Z,-0.92
2019-01-10T04:53:20.449Z,-0.81
2019-01-10T04:56:44.426Z,-0.80
2019-01-10T05:00:27.779Z,-0.84
2019-01-10T05:03:52.104Z,-0.77
2019-01-10T05:07:16.104Z,-0.96
2019-01-10T05:10:40.100Z,-0.98
2019-01-10T05:14:04.148Z,-0.98
2019-01-10T05:17:30.205Z,-0.98
2019-01-10T05:20:54.107Z,-1.02
2019-01-10T05:24:18.124Z,-1.02
2019-01-10T05:27:42.484Z,-1.09
2019-01-10T05:31:06.448Z,-1.06
2019-01-10T05:34:30.677Z,-1.05
2019-01-10T05:37:47.972Z,-1.00
2019-01-10T05:41:11.982Z,-0.98
2019-01-10T05:44:36.254Z,-0.99
2019-01-10T05:48:00.339Z,-0.99
2019-01-10T05:55:47.984Z,-0.95
2019-01-10T06:02:23.511Z,-0.85
2019-01-10T06:05:28.288Z,-0.89
2019-01-10T06:12:21.788Z,-0.85
2019-01-10T06:15:45.773Z,-0.88
2019-01-10T06:19:10.039Z,-0.88
2019-01-10T06:22:34.007Z,-0.84
2019-01-10T06:25:38.663Z,-0.79
2019-01-10T06:29:02.621Z,-0.76
2019-01-10T06:32:26.591Z,-0.76
2019-01-10T06:35:43.345Z,-0.85
2019-01-10T06:39:26.818Z,-0.97
2019-01-10T06:42:50.788Z,-0.99
2019-01-10T06:49:43.963Z,-0.98
2019-01-10T06:53:07.931Z,-0.97
2019-01-10T06:56:51.201Z,-0.92
2019-01-10T07:00:34.502Z,-0.95
2019-01-10T07:03:58.525Z,-0.96
2019-01-10T07:07:22.760Z,-0.89
2019-01-10T07:10:46.738Z,-0.83
2019-01-10T07:14:29.748Z,-0.78
2019-01-10T07:17:53.709Z,-0.75
2019-01-10T07:21:17.726Z,-0.77
2019-01-10T07:25:02.510Z,-0.80
2019-01-10T07:32:09.411Z,-0.74
2019-01-10T07:35:26.610Z,-0.77
2019-01-10T07:38:50.608Z,-0.76
2019-01-10T07:42:33.612Z,-0.75
2019-01-10T07:49:48.360Z,-0.86
2019-01-10T07:53:12.400Z,-0.93
2019-01-10T08:00:27.430Z,-0.84
2019-01-10T08:03:51.395Z,-0.88
2019-01-10T08:07:15.375Z,-0.84
2019-01-10T08:14:29.840Z,-0.83
2019-01-10T08:21:43.541Z,-0.95
2019-01-10T08:25:28.649Z,-0.99
2019-01-10T08:32:21.964Z,-0.95
2019-01-10T08:35:38.778Z,-0.93
2019-01-10T08:42:37.702Z,-0.96
2019-01-10T08:46:01.661Z,-0.96
2019-01-10T08:49:25.641Z,-0.95
2019-01-10T08:52:49.687Z,-0.92
2019-01-10T08:56:32.687Z,-0.94
2019-01-10T08:59:56.668Z,-0.93
2019-01-10T09:03:20.916Z,-0.96
2019-01-10T09:06:44.879Z,-0.90
2019-01-10T09:10:29.963Z,-0.77
2019-01-10T09:13:53.975Z,-0.81
2019-01-10T09:17:18.233Z,-0.76
2019-01-10T09:24:12.028Z,-0.78
2019-01-10T09:27:35.999Z,-0.75
2019-01-10T09:30:59.987Z,-0.76
2019-01-10T09:34:31.678Z,-0.77
2019-01-10T09:37:49.218Z,-0.80
2019-01-10T09:41:13.223Z,-0.74
2019-01-10T09:44:37.296Z,-0.71
2019-01-10T09:48:01.254Z,-0.68
2019-01-10T09:51:25.540Z,-0.67
2019-01-10T09:54:49.751Z,-0.65
2019-01-10T09:58:13.721Z,-0.64
2019-01-10T10:01:37.700Z,-0.61
2019-01-10T10:05:02.006Z,-0.68
2019-01-10T10:08:26.787Z,-0.63
2019-01-10T10:15:41.372Z,-0.64
2019-01-10T10:19:25.116Z,-0.70
2019-01-10T10:22:49.081Z,-0.66
2019-01-10T10:26:13.393Z,-0.73
2019-01-10T10:29:37.386Z,-0.68
2019-01-10T10:33:01.365Z,-0.66
2019-01-10T10:36:17.962Z,-0.71
2019-01-10T10:39:41.937Z,-0.70
2019-01-10T10:47:15.315Z,-0.64
2019-01-10T10:54:10.817Z,-0.60
2019-01-10T10:57:15.521Z,-0.67
2019-01-10T11:00:39.528Z,-0.69
2019-01-10T11:15:32.930Z,-0.52
2019-01-10T11:18:56.904Z,-0.41
2019-01-10T11:22:20.882Z,-0.61
2019-01-10T11:25:44.851Z,-0.54
2019-01-10T11:32:38.788Z,-0.44
2019-01-10T11:35:55.865Z,-0.39
2019-01-10T11:39:19.843Z,-0.51
2019-01-10T11:42:43.819Z,-0.48
2019-01-10T11:46:08.207Z,-0.50
2019-01-10T11:49:32.190Z,-0.44
2019-01-10T11:52:56.239Z,-0.56
2019-01-10T11:56:20.204Z,-0.61
2019-01-10T11:59:44.445Z,-0.42
2019-01-10T12:03:27.778Z,-0.37
2019-01-10T12:06:32.424Z,-0.41
2019-01-10T12:09:37.357Z,-0.39
2019-01-10T12:13:01.341Z,-0.35
2019-01-10T12:20:29.044Z,-0.37
2019-01-10T12:23:53.044Z,-0.50
2019-01-10T12:27:17.301Z,-0.53
2019-01-10T12:30:41.685Z,-0.55
2019-01-10T12:34:05.669Z,-0.57
2019-01-10T12:37:22.720Z,-0.50
2019-01-10T12:40:47.001Z,-0.53
2019-01-10T12:44:10.980Z,-0.42
2019-01-10T12:47:35.352Z,-0.41
2019-01-10T12:50:59.331Z,-0.22
2019-01-10T12:54:23.334Z,-0.43
2019-01-10T12:57:47.363Z,-0.38
2019-01-10T13:01:30.624Z,-0.38
2019-01-10T13:04:54.604Z,-0.43
2019-01-10T13:08:18.913Z,-0.43
2019-01-10T13:15:26.361Z,-0.53
2019-01-10T13:18:50.674Z,-0.57
2019-01-10T13:22:14.692Z,-0.53
2019-01-10T13:25:59.790Z,-0.48
2019-01-10T13:29:42.445Z,-0.48
2019-01-10T13:33:25.616Z,-0.48
2019-01-10T13:36:42.542Z,-0.52
2019-01-10T13:40:27.637Z,-0.56
2019-01-10T13:43:51.607Z,-0.49
2019-01-10T13:47:16.014Z,-0.53
2019-01-10T13:50:39.991Z,-0.60
2019-01-10T13:57:54.490Z,-0.63
2019-01-10T14:01:18.473Z,-0.61
2019-01-10T14:04:42.511Z,-0.67
2019-01-10T14:12:10.095Z,-0.71
2019-01-10T14:19:24.961Z,-0.73
2019-01-10T14:22:48.981Z,-0.73
2019-01-10T14:26:13.323Z,-0.69
2019-01-10T14:29:37.804Z,-0.74
2019-01-10T14:33:20.925Z,-0.74
2019-01-10T14:36:37.443Z,-0.75
2019-01-10T14:40:01.707Z,-0.74
2019-01-10T14:43:25.653Z,-0.73
2019-01-10T14:50:41.004Z,-0.84
2019-01-10T14:54:06.121Z,-0.84
2019-01-10T14:57:30.359Z,-0.82
2019-01-10T15:11:30.222Z,-0.74
2019-01-10T15:14:54.519Z,-0.86
2019-01-10T15:18:18.482Z,-0.87
2019-01-10T15:21:42.772Z,-0.91
2019-01-10T15:25:26.059Z,-0.86
2019-01-10T15:32:20.476Z,-0.92
2019-01-10T15:35:38.114Z,-0.89
2019-01-10T15:39:02.080Z,-0.87
2019-01-10T15:42:45.181Z,-0.88
2019-01-10T15:46:09.227Z,-1.00
2019-01-10T15:49:52.262Z,-1.09
2019-01-10T15:53:35.319Z,-1.10
2019-01-10T16:03:58.846Z,-1.17
2019-01-10T16:07:22.835Z,-1.16
2019-01-10T16:10:46.804Z,-1.21
2019-01-10T16:14:10.808Z,-1.25
2019-01-10T16:25:13.430Z,-1.32
2019-01-10T16:28:56.527Z,-1.33
2019-01-10T16:32:20.811Z,-1.33
2019-01-10T16:35:38.195Z,-1.36
2019-01-10T16:39:02.646Z,-1.34
2019-01-10T16:42:45.921Z,-1.32
2019-01-10T16:46:09.888Z,-1.32
2019-01-10T16:49:33.862Z,-1.35
2019-01-10T16:53:17.050Z,-1.27
2019-01-10T17:00:43.509Z,-1.39
2019-01-10T17:04:07.737Z,-1.36
2019-01-10T17:11:15.082Z,-1.41
2019-01-10T17:14:39.096Z,-1.43
2019-01-10T17:18:03.094Z,-1.43
2019-01-10T17:21:27.328Z,-1.45
2019-01-10T17:24:51.345Z,-1.45
2019-01-10T17:28:15.334Z,-1.48
2019-01-10T17:31:39.319Z,-1.48
2019-01-10T17:38:53.977Z,-1.52
2019-01-10T17:46:02.824Z,-1.55
2019-01-10T17:49:26.798Z,-1.56
2019-01-10T17:52:31.488Z,-1.58
2019-01-10T17:55:36.462Z,-1.60
2019-01-10T17:58:41.392Z,-1.60
2019-01-10T18:01:46.154Z,-1.62
2019-01-10T18:04:50.835Z,-1.66
2019-01-10T18:07:55.859Z,-1.64
2019-01-10T18:11:00.483Z,-1.67
2019-01-10T18:14:05.385Z,-1.68
2019-01-10T18:17:10.306Z,-1.66
2019-01-10T18:20:19.836Z,-1.66
2019-01-10T18:23:24.551Z,-1.67
2019-01-10T18:26:29.239Z,-1.65
2019-01-10T18:29:34.140Z,-1.66
2019-01-10T18:32:38.848Z,-1.72
2019-01-10T18:35:43.607Z,-1.72
2019-01-10T18:38:48.550Z,-1.78
2019-01-10T18:41:53.489Z,-1.76
2019-01-10T18:44:58.171Z,-1.74
2019-01-10T18:48:05.115Z,-1.77
2019-01-10T18:51:09.699Z,-1.75
2019-01-10T18:54:14.661Z,-1.73
2019-01-10T18:57:19.647Z,-1.73
2019-01-10T19:00:30.354Z,-1.80
2019-01-10T19:03:35.033Z,-1.90
2019-01-10T19:06:40.220Z,-1.94
2019-01-10T19:09:44.920Z,-1.97
2019-01-10T19:12:49.999Z,-2.07
2019-01-10T19:15:54.975Z,-2.18
2019-01-10T19:18:59.640Z,-2.21
2019-01-10T19:22:04.443Z,-2.30
2019-01-10T19:25:09.746Z,-2.40
2019-01-10T19:28:14.502Z,-2.51
2019-01-10T19:31:22.966Z,-2.54
2019-01-10T19:34:27.795Z,-2.54
2019-01-10T19:37:33.182Z,-2.55
2019-01-10T19:40:37.984Z,-2.60
2019-01-10T19:43:42.713Z,-2.49
2019-01-10T19:46:47.621Z,-2.56
2019-01-10T19:49:58.275Z,-2.51
2019-01-10T19:52:58.630Z,-2.51
2019-01-10T19:56:03.857Z,-2.43
2019-01-10T19:59:08.677Z,-2.48
2019-01-10T20:02:13.798Z,-2.61
2019-01-10T20:05:18.927Z,-2.69
2019-01-10T20:08:23.798Z,-2.70
2019-01-10T20:11:28.607Z,-2.70
2019-01-10T20:14:33.522Z,-2.65
2019-01-10T20:17:38.275Z,-2.59
2019-01-10T20:20:43.322Z,-2.54
2019-01-10T20:23:48.040Z,-2.47
2019-01-10T20:26:52.803Z,-2.44
2019-01-10T20:29:57.566Z,-2.47
2019-01-10T20:33:02.655Z,-2.48
2019-01-10T20:36:07.559Z,-2.45
2019-01-10T20:39:12.243Z,-2.52
2019-01-10T20:42:18.041Z,-2.52
2019-01-10T20:45:22.669Z,-2.58
2019-01-10T20:48:27.847Z,-2.60
2019-01-10T20:51:32.599Z,-2.58
2019-01-10T20:54:37.249Z,-2.60
2019-01-10T20:57:47.753Z,-2.56
2019-01-10T21:00:53.787Z,-2.60
2019-01-10T21:03:58.860Z,-2.61
2019-01-10T21:07:05.976Z,-2.60
2019-01-10T21:10:14.961Z,-2.59
2019-01-10T21:13:19.658Z,-2.16
2019-01-10T21:16:25.025Z,-2.41
2019-01-10T21:19:29.990Z,-2.57
2019-01-10T21:22:34.701Z,-2.54
2019-01-10T21:25:39.413Z,-2.55
2019-01-10T21:28:44.347Z,-2.47
2019-01-10T21:31:49.633Z,-2.49
2019-01-10T21:34:54.663Z,-2.53
2019-01-10T21:38:00.125Z,-2.54
2019-01-10T21:41:05.191Z,-2.52
2019-01-10T21:44:10.901Z,-2.56
2019-01-10T21:47:15.783Z,-2.58
2019-01-10T21:50:25.025Z,-2.57
2019-01-10T21:53:31.174Z,-2.60
2019-01-10T21:56:36.478Z,-2.65
2019-01-10T21:59:41.324Z,-2.67
2019-01-10T22:02:45.853Z,-2.66
2019-01-10T22:05:51.129Z,-2.71
2019-01-10T22:08:56.011Z,-2.71
2019-01-10T22:12:01.094Z,-2.68
2019-01-10T22:15:10.201Z,-2.67
2019-01-10T22:18:15.194Z,-2.71
2019-01-10T22:21:20.032Z,-2.75
2019-01-10T22:24:24.777Z,-2.78
2019-01-10T22:27:29.617Z,-2.84
2019-01-10T22:30:35.014Z,-2.85
2019-01-10T22:33:40.038Z,-2.88
2019-01-10T22:36:45.046Z,-2.88
2019-01-10T22:39:49.845Z,-2.88
2019-01-10T22:42:54.537Z,-2.90
2019-01-10T22:45:59.427Z,-2.93
2019-01-10T22:49:04.232Z,-2.91
2019-01-10T22:52:08.901Z,-2.94
2019-01-10T22:55:15.557Z,-2.94
2019-01-10T22:58:20.786Z,-2.97
2019-01-10T23:01:32.471Z,-3.01
2019-01-10T23:04:37.499Z,-3.02
2019-01-10T23:07:42.175Z,-3.10
2019-01-10T23:10:47.471Z,-3.12
2019-01-10T23:13:57.358Z,-3.12
2019-01-10T23:17:01.947Z,-3.08
2019-01-10T23:20:06.948Z,-3.12
2019-01-10T23:23:13.874Z,-3.11
2019-01-10T23:26:18.730Z,-3.09
2019-01-10T23:29:25.479Z,-3.06
2019-01-10T23:32:30.187Z,-3.05
2019-01-10T23:35:37.879Z,-3.07
2019-01-10T23:38:42.596Z,-3.02
2019-01-10T23:41:47.349Z,-2.98
2019-01-10T23:44:52.309Z,-2.95
2019-01-10T23:47:56.968Z,-2.93
2019-01-10T23:54:25.908Z,-2.62
2019-01-10T23:57:50.029Z,-2.60
